Terminal Aerodrome Forecast
Issued by NWS

Home | Current Version | Previous Version | Text Only | Print | Product List | Glossary On
Versions: 1 2 3 4 5 6 7 8 9 10 11 12 13 14 15 16 17
000
FTUS45 KMSO 251745
TAFSMN
TAF
KSMN 251745Z 2518/2618 VRB06KT P6SM BKN120
     FM252100 VRB06G25KT P6SM VCTS BKN060CB OVC100
     FM260200 VRB05KT P6SM -SHRA BKN100
     FM260800 VRB05KT P6SM BKN120
      AMD LTD TO CLD VIS AND WIND=

USA.gov is the U.S. government's official web portal to all federal, state and local government web resources and services.